createdAt,value
2023-12-21T00:02:29.178Z,4.32
2023-12-21T00:07:30.794Z,4.15
2023-12-21T00:12:32.813Z,4.80
2023-12-21T00:17:34.364Z,3.60
2023-12-21T00:22:35.876Z,8.82
2023-12-21T00:27:37.303Z,3.65
2023-12-21T00:32:38.822Z,5.93
2023-12-21T00:37:40.432Z,4.65
2023-12-21T00:42:43.635Z,4.13
2023-12-21T00:47:45.413Z,3.03
2023-12-21T00:52:47.028Z,2.65
2023-12-21T00:57:48.768Z,3.25
2023-12-21T01:02:50.517Z,6.18
2023-12-21T01:07:52.013Z,2.65
2023-12-21T01:12:53.472Z,3.95
2023-12-21T01:17:55.001Z,7.85
2023-12-21T01:22:56.456Z,4.55
2023-12-21T01:27:57.897Z,4.35
2023-12-21T01:32:59.879Z,6.22
2023-12-21T01:38:01.352Z,4.43
2023-12-21T01:43:02.852Z,6.18
2023-12-21T01:48:04.786Z,5.05
2023-12-21T01:53:06.493Z,2.50
2023-12-21T01:58:09.949Z,3.15
2023-12-21T02:03:11.492Z,4.15
2023-12-21T02:08:13.623Z,4.40
2023-12-21T02:13:16.714Z,2.60
2023-12-21T02:18:18.719Z,3.80
2023-12-21T02:23:22.179Z,4.10
2023-12-21T02:28:23.783Z,5.97
2023-12-21T02:33:25.314Z,3.72
2023-12-21T02:38:26.814Z,8.63
2023-12-21T02:43:28.320Z,4.47
2023-12-21T02:48:30.893Z,2.83
2023-12-21T02:53:32.433Z,26.33
2023-12-21T02:58:34.111Z,4.38
2023-12-21T03:03:36.017Z,5.30
2023-12-21T03:08:37.618Z,1.95
2023-12-21T03:13:39.096Z,4.93
2023-12-21T03:18:40.654Z,2.58
2023-12-21T03:23:42.740Z,2.80
2023-12-21T03:28:46.269Z,3.08
2023-12-21T03:33:47.946Z,4.38
2023-12-21T03:38:50.090Z,3.20
2023-12-21T03:43:51.579Z,4.15
2023-12-21T03:48:53.162Z,4.28
2023-12-21T03:53:54.647Z,38.28
2023-12-21T03:58:56.110Z,27.17
2023-12-21T04:03:57.653Z,4.28
2023-12-21T04:08:59.144Z,2.67
2023-12-21T04:14:00.673Z,7.45
2023-12-21T04:19:05.324Z,36.67
2023-12-21T04:24:07.308Z,4.50
2023-12-21T04:29:08.938Z,4.25
2023-12-21T04:34:10.497Z,1.88
2023-12-21T04:39:12.265Z,4.47
2023-12-21T04:44:13.754Z,8.75
2023-12-21T04:49:20.381Z,3.33
2023-12-21T04:54:21.972Z,13.88
2023-12-21T04:59:23.567Z,35.80
2023-12-21T05:04:25.307Z,33.10
2023-12-21T05:09:26.857Z,34.75
2023-12-21T05:14:28.336Z,26.88
2023-12-21T05:19:30.047Z,4.75
2023-12-21T05:24:31.586Z,4.88
2023-12-21T05:29:33.201Z,63.97
2023-12-21T05:34:34.828Z,8.25
2023-12-21T05:39:36.612Z,23.02
2023-12-21T05:44:38.139Z,9.63
2023-12-21T05:49:39.758Z,24.42
2023-12-21T05:54:41.558Z,7.40
2023-12-21T05:59:43.186Z,5.55
2023-12-21T06:04:44.686Z,18.73
2023-12-21T06:09:46.212Z,7.07
2023-12-21T06:14:47.671Z,30.42
2023-12-21T06:19:49.287Z,47.90
2023-12-21T06:24:51.147Z,8.73
2023-12-21T06:29:52.750Z,25.20
2023-12-21T06:34:54.309Z,51.13
2023-12-21T06:39:55.973Z,15.25
2023-12-21T06:44:57.463Z,9.73
2023-12-21T06:49:58.960Z,34.55
2023-12-21T06:55:00.609Z,18.75
2023-12-21T07:00:02.170Z,7.90
2023-12-21T07:05:03.853Z,15.77
2023-12-21T07:10:05.936Z,7.38
2023-12-21T07:15:07.674Z,6.13
2023-12-21T07:20:09.803Z,9.45
2023-12-21T07:25:11.322Z,14.90
2023-12-21T07:30:13.169Z,7.55
2023-12-21T07:35:14.702Z,69.38
2023-12-21T07:40:16.204Z,15.00
2023-12-21T07:45:17.714Z,7.90
2023-12-21T07:50:19.177Z,10.43
2023-12-21T07:55:21.920Z,13.68
2023-12-21T08:00:23.471Z,27.88
2023-12-21T08:05:25.249Z,15.65
2023-12-21T08:10:26.958Z,8.23
2023-12-21T08:15:28.496Z,23.45
2023-12-21T08:20:31.155Z,24.67
2023-12-21T08:25:35.674Z,14.10
2023-12-21T08:30:37.277Z,9.55
2023-12-21T08:35:38.805Z,14.65
2023-12-21T08:40:40.306Z,14.57
2023-12-21T08:45:41.770Z,18.15
2023-12-21T08:50:43.309Z,15.88
2023-12-21T08:55:45.530Z,12.90
2023-12-21T09:00:47.298Z,22.88
2023-12-21T09:05:49.094Z,57.63
2023-12-21T09:10:50.893Z,26.40
2023-12-21T09:15:52.380Z,44.38
2023-12-21T09:20:53.840Z,54.95
2023-12-21T09:25:55.533Z,7.47
2023-12-21T09:30:58.091Z,4.90
2023-12-21T09:35:59.790Z,19.20
2023-12-21T09:41:01.484Z,23.27
2023-12-21T09:46:04.314Z,22.73
2023-12-21T09:51:06.745Z,14.73
2023-12-21T10:01:10.412Z,14.50
2023-12-21T10:06:12.902Z,83.85
2023-12-21T10:16:17.733Z,23.23
2023-12-21T10:21:21.164Z,11.07
2023-12-21T10:26:22.689Z,23.08
2023-12-21T10:31:24.276Z,26.90
2023-12-21T10:36:27.480Z,120.70
2023-12-21T10:41:30.441Z,12.50
2023-12-21T10:46:32.518Z,7.28
2023-12-21T10:51:38.340Z,21.05
2023-12-21T10:56:43.590Z,82.32
2023-12-21T11:01:45.321Z,6.75
2023-12-21T11:06:48.004Z,49.65
2023-12-21T11:11:49.805Z,5.82
2023-12-21T11:16:56.666Z,7.13
2023-12-21T11:21:58.758Z,19.30
2023-12-21T11:27:02.852Z,9.93
2023-12-21T11:32:07.109Z,28.23
2023-12-21T11:37:22.248Z,82.57
2023-12-21T11:42:37.269Z,205.40
2023-12-21T11:47:39.067Z,33.17
2023-12-21T11:52:40.593Z,68.30
2023-12-21T11:57:42.192Z,109.97
2023-12-21T12:02:51.434Z,87.78
2023-12-21T12:07:53.720Z,83.70
2023-12-21T12:12:55.818Z,102.72
2023-12-21T12:17:57.978Z,113.30
2023-12-21T12:22:59.797Z,27.58
2023-12-21T12:28:01.690Z,83.28
2023-12-21T12:33:05.103Z,71.55
2023-12-21T12:38:07.271Z,169.60
2023-12-21T12:43:09.956Z,88.25
2023-12-21T12:48:11.790Z,181.10
2023-12-21T12:53:15.907Z,70.20
2023-12-21T12:58:17.692Z,47.47
2023-12-21T13:03:19.629Z,137.98
2023-12-21T13:08:21.104Z,73.35
2023-12-21T13:13:23.930Z,107.72
2023-12-21T13:18:25.451Z,111.13
2023-12-21T13:23:27.034Z,187.18
2023-12-21T13:28:28.546Z,100.60
2023-12-21T13:33:30.241Z,135.57
2023-12-21T13:38:31.751Z,86.68
2023-12-21T13:43:33.467Z,113.35
2023-12-21T13:48:35.134Z,179.25
2023-12-21T13:53:37.053Z,43.88
2023-12-21T13:58:38.608Z,111.07
2023-12-21T14:03:40.210Z,60.42
2023-12-21T14:08:41.727Z,162.15
2023-12-21T14:13:43.238Z,156.05
2023-12-21T14:18:44.703Z,93.38
2023-12-21T14:23:46.145Z,116.45
2023-12-21T14:28:54.414Z,51.33
2023-12-21T14:33:59.024Z,71.13
2023-12-21T14:39:00.561Z,158.43
2023-12-21T14:44:02.195Z,214.27
2023-12-21T14:49:03.738Z,114.55
2023-12-21T14:54:05.268Z,145.98
2023-12-21T14:59:06.895Z,99.20
2023-12-21T15:04:08.554Z,141.55
2023-12-21T15:09:10.362Z,258.85
2023-12-21T15:14:12.311Z,181.75
2023-12-21T15:19:13.960Z,127.70
2023-12-21T15:24:15.492Z,140.75
2023-12-21T15:29:16.994Z,149.25
2023-12-21T15:34:18.805Z,153.55
2023-12-21T15:39:20.677Z,70.38
2023-12-21T15:44:22.197Z,81.70
2023-12-21T15:49:23.757Z,156.98
2023-12-21T15:54:25.250Z,184.00
2023-12-21T15:59:26.751Z,145.35
2023-12-21T16:04:28.342Z,153.98
2023-12-21T16:09:29.920Z,112.75
2023-12-21T16:14:31.462Z,144.93
2023-12-21T16:19:34.674Z,162.00
2023-12-21T16:24:36.138Z,224.25
2023-12-21T16:34:45.903Z,131.23
2023-12-21T16:39:47.473Z,84.80
2023-12-21T16:44:51.245Z,73.18
2023-12-21T16:49:52.705Z,170.40
2023-12-21T16:54:54.204Z,169.88
2023-12-21T16:59:56.189Z,152.75
2023-12-21T17:04:58.722Z,70.00
2023-12-21T17:10:00.361Z,70.03
2023-12-21T17:15:01.828Z,88.53
2023-12-21T17:20:04.025Z,159.40
2023-12-21T17:25:05.904Z,94.70
2023-12-21T17:30:07.923Z,70.80
2023-12-21T17:35:09.528Z,156.15
2023-12-21T17:40:15.090Z,39.97
